Time;durP1;ratioP1;P1;durP2;ratioP2;P2;SDS_P1;SDS_P2;PMS_P1;PMS_P2;Temp;Humidity;BMP_temperature;BMP_pressure;BME280_temperature;BME280_humidity;BME280_pressure;Samples;Min_cycle;Max_cycle;Signal;HPM_P1;HPM_P2
2022/07/17 00:00:18;;;;;;;4.88;4.18;;;;;;;;;;5029013;28;20026;-75
2022/07/17 00:02:45;;;;;;;6.97;4.50;;;;;;;;;;5029468;28;20037;-74
2022/07/17 00:05:11;;;;;;;4.90;4.15;;;;;;;;;;5028109;28;20501;-73
2022/07/17 00:07:37;;;;;;;6.68;4.53;;;;;;;;;;5030357;28;20414;-74
2022/07/17 00:10:03;;;;;;;5.78;4.10;;;;;;;;;;5027969;28;20104;-74
2022/07/17 00:12:29;;;;;;;5.90;4.30;;;;;;;;;;5029267;28;20213;-74
2022/07/17 00:14:55;;;;;;;5.65;4.95;;;;;;;;;;5028675;28;20033;-74
2022/07/17 00:17:21;;;;;;;5.35;4.15;;;;;;;;;;5028613;28;20025;-74
2022/07/17 00:19:47;;;;;;;5.22;3.60;;;;;;;;;;5023915;28;20029;-74
2022/07/17 00:22:13;;;;;;;6.50;4.13;;;;;;;;;;5027074;28;20036;-74
2022/07/17 00:24:40;;;;;;;6.85;4.88;;;;;;;;;;5030236;28;20060;-73
2022/07/17 00:27:06;;;;;;;5.90;4.07;;;;;;;;;;5029172;28;20498;-73
2022/07/17 00:29:32;;;;;;;4.95;4.43;;;;;;;;;;5027298;28;20033;-75
2022/07/17 00:31:58;;;;;;;5.93;4.72;;;;;;;;;;5028614;28;20017;-73
2022/07/17 00:34:24;;;;;;;5.88;4.65;;;;;;;;;;5026927;28;20023;-75
2022/07/17 00:36:50;;;;;;;5.85;4.45;;;;;;;;;;5029587;28;20118;-74
2022/07/17 00:39:16;;;;;;;7.18;4.60;;;;;;;;;;5026144;28;20049;-74
2022/07/17 00:41:45;;;;;;;7.28;4.95;;;;;;;;;;5029441;28;20025;-74
2022/07/17 00:44:12;;;;;;;5.65;4.50;;;;;;;;;;5024435;28;20040;-74
2022/07/17 00:46:39;;;;;;;7.65;5.72;;;;;;;;;;5029166;28;20104;-74
2022/07/17 00:49:05;;;;;;;12.43;5.63;;;;;;;;;;5027693;28;20038;-73
2022/07/17 00:51:32;;;;;;;7.53;5.38;;;;;;;;;;5029868;28;20021;-74
2022/07/17 00:53:58;;;;;;;7.65;5.22;;;;;;;;;;5028495;28;20022;-75
2022/07/17 00:56:25;;;;;;;8.05;6.00;;;;;;;;;;5027437;28;20029;-74
2022/07/17 00:58:51;;;;;;;5.82;5.20;;;;;;;;;;5025847;28;20048;-74
2022/07/17 01:01:17;;;;;;;5.28;4.25;;;;;;;;;;5030120;28;20025;-74
2022/07/17 01:03:43;;;;;;;7.38;5.07;;;;;;;;;;5027619;28;20044;-74
2022/07/17 01:06:09;;;;;;;5.22;4.35;;;;;;;;;;5027176;28;20064;-74
2022/07/17 01:08:36;;;;;;;6.40;5.03;;;;;;;;;;5027990;28;20101;-74
2022/07/17 01:11:06;;;;;;;7.13;4.85;;;;;;;;;;5027212;28;20426;-75
2022/07/17 01:13:34;;;;;;;6.72;4.63;;;;;;;;;;5021180;28;20029;-74
2022/07/17 01:16:00;;;;;;;6.05;4.57;;;;;;;;;;5028555;28;20021;-74
2022/07/17 01:18:26;;;;;;;8.65;5.55;;;;;;;;;;5026366;28;20041;-74
2022/07/17 01:20:53;;;;;;;6.82;4.63;;;;;;;;;;5028654;28;20029;-74
2022/07/17 01:23:19;;;;;;;6.38;4.45;;;;;;;;;;5027048;28;20037;-74
2022/07/17 01:25:46;;;;;;;5.82;4.72;;;;;;;;;;5028018;28;20037;-74
2022/07/17 01:28:12;;;;;;;6.05;4.50;;;;;;;;;;5027990;28;20048;-74
2022/07/17 01:30:45;;;;;;;6.82;4.22;;;;;;;;;;5028186;28;20097;-73
2022/07/17 01:33:11;;;;;;;5.38;4.50;;;;;;;;;;5028600;28;20037;-73
2022/07/17 01:35:37;;;;;;;7.47;4.70;;;;;;;;;;5022807;28;20143;-74
2022/07/17 01:38:04;;;;;;;6.38;5.13;;;;;;;;;;5023728;28;20269;-75
2022/07/17 01:40:30;;;;;;;9.48;5.10;;;;;;;;;;5025247;28;20391;-75
2022/07/17 01:42:56;;;;;;;7.88;4.90;;;;;;;;;;5028205;28;20028;-74
2022/07/17 01:45:22;;;;;;;5.32;4.53;;;;;;;;;;5021865;28;20030;-76
2022/07/17 01:47:48;;;;;;;7.13;5.28;;;;;;;;;;5027888;28;20495;-74
2022/07/17 01:50:15;;;;;;;6.38;4.97;;;;;;;;;;5022466;28;20512;-74
2022/07/17 01:52:42;;;;;;;7.38;5.05;;;;;;;;;;5024447;28;20476;-74
2022/07/17 01:55:09;;;;;;;6.45;4.80;;;;;;;;;;5024735;28;20063;-74
2022/07/17 01:57:36;;;;;;;5.90;4.78;;;;;;;;;;5027121;28;20087;-74
2022/07/17 02:00:04;;;;;;;6.97;4.90;;;;;;;;;;5027417;28;20053;-74
2022/07/17 02:02:30;;;;;;;6.70;5.32;;;;;;;;;;5027768;28;20056;-75
2022/07/17 02:04:56;;;;;;;6.90;5.40;;;;;;;;;;5026903;28;20030;-74
2022/07/17 02:07:22;;;;;;;8.55;6.53;;;;;;;;;;5026697;28;20033;-75
2022/07/17 02:09:48;;;;;;;6.80;5.90;;;;;;;;;;5025573;28;20487;-74
2022/07/17 02:12:14;;;;;;;8.25;6.50;;;;;;;;;;5026084;28;20025;-75
2022/07/17 02:14:40;;;;;;;8.63;6.30;;;;;;;;;;5027614;28;20014;-75
2022/07/17 02:17:07;;;;;;;9.75;7.10;;;;;;;;;;5025665;28;20030;-74
2022/07/17 02:19:33;;;;;;;7.05;5.97;;;;;;;;;;5021907;28;20021;-74
2022/07/17 02:21:59;;;;;;;8.82;6.55;;;;;;;;;;5027280;28;20029;-74
2022/07/17 02:24:25;;;;;;;8.70;6.22;;;;;;;;;;5026743;28;20018;-74
2022/07/17 02:26:51;;;;;;;9.68;6.20;;;;;;;;;;5027233;28;20048;-74
2022/07/17 02:29:17;;;;;;;7.07;5.88;;;;;;;;;;5025946;28;20183;-74
2022/07/17 02:31:43;;;;;;;9.23;6.05;;;;;;;;;;5026857;28;20025;-74
2022/07/17 02:34:09;;;;;;;7.63;5.65;;;;;;;;;;5026135;28;20518;-74
2022/07/17 02:36:35;;;;;;;8.50;6.15;;;;;;;;;;5027155;28;20017;-74
2022/07/17 02:39:01;;;;;;;6.75;5.88;;;;;;;;;;5020647;28;20507;-74
2022/07/17 02:41:28;;;;;;;6.85;5.47;;;;;;;;;;5022780;28;20112;-74
2022/07/17 02:43:54;;;;;;;9.77;5.50;;;;;;;;;;5022204;28;20025;-74
2022/07/17 02:46:20;;;;;;;7.80;6.18;;;;;;;;;;5023923;28;20036;-74
2022/07/17 02:48:46;;;;;;;8.45;6.30;;;;;;;;;;5025617;28;20075;-74
2022/07/17 02:51:12;;;;;;;6.40;5.78;;;;;;;;;;5025284;28;20032;-75
2022/07/17 02:53:38;;;;;;;7.70;5.90;;;;;;;;;;5025136;28;20071;-75
2022/07/17 02:56:04;;;;;;;8.05;5.40;;;;;;;;;;5022795;28;20817;-74
2022/07/17 02:58:30;;;;;;;7.68;6.20;;;;;;;;;;5024490;28;20036;-75
2022/07/17 03:00:56;;;;;;;6.80;5.47;;;;;;;;;;5027549;28;20380;-74
2022/07/17 03:03:22;;;;;;;7.03;5.63;;;;;;;;;;5023885;28;20030;-75
2022/07/17 03:05:48;;;;;;;6.85;5.57;;;;;;;;;;5017430;28;20044;-74
2022/07/17 03:08:15;;;;;;;8.73;6.03;;;;;;;;;;5025379;28;20033;-74
2022/07/17 03:10:41;;;;;;;6.63;5.93;;;;;;;;;;5026787;28;20089;-74
2022/07/17 03:13:07;;;;;;;7.07;5.50;;;;;;;;;;5024519;28;20122;-75
2022/07/17 03:15:33;;;;;;;7.07;5.45;;;;;;;;;;5021769;28;20058;-74
2022/07/17 03:17:59;;;;;;;10.00;5.38;;;;;;;;;;5023136;28;20389;-74
2022/07/17 03:20:25;;;;;;;7.05;4.97;;;;;;;;;;5026059;28;20488;-76
2022/07/17 03:22:51;;;;;;;8.57;4.93;;;;;;;;;;5031950;28;20018;-75
2022/07/17 03:25:18;;;;;;;6.10;5.25;;;;;;;;;;5025143;28;20029;-74
2022/07/17 03:27:44;;;;;;;6.22;5.07;;;;;;;;;;5025894;28;20671;-75
2022/07/17 03:30:10;;;;;;;10.77;5.28;;;;;;;;;;5021578;28;20042;-73
2022/07/17 03:32:36;;;;;;;11.23;5.50;;;;;;;;;;5020191;28;20026;-73
2022/07/17 03:35:02;;;;;;;6.70;5.32;;;;;;;;;;5026370;28;20373;-74
2022/07/17 03:37:29;;;;;;;10.93;5.80;;;;;;;;;;5028323;28;20022;-74
2022/07/17 03:39:55;;;;;;;7.57;5.40;;;;;;;;;;5025948;28;20028;-73
2022/07/17 03:42:21;;;;;;;6.80;5.18;;;;;;;;;;5026959;28;20022;-74
2022/07/17 03:44:47;;;;;;;10.15;5.45;;;;;;;;;;5028776;28;20368;-74
2022/07/17 03:47:13;;;;;;;7.25;4.35;;;;;;;;;;5022089;28;20116;-75
2022/07/17 03:49:39;;;;;;;7.38;4.88;;;;;;;;;;5025429;28;20068;-73
2022/07/17 03:52:06;;;;;;;6.32;4.80;;;;;;;;;;5016437;28;20365;-74
2022/07/17 03:54:32;;;;;;;5.30;4.15;;;;;;;;;;5022263;28;20034;-74
2022/07/17 03:56:58;;;;;;;5.82;4.57;;;;;;;;;;5026090;28;20250;-74
2022/07/17 03:59:24;;;;;;;5.05;3.95;;;;;;;;;;5018077;28;20026;-73
2022/07/17 04:01:51;;;;;;;6.07;4.10;;;;;;;;;;5021840;28;20029;-74
2022/07/17 04:04:17;;;;;;;5.50;4.10;;;;;;;;;;5026097;28;20030;-74
2022/07/17 04:06:43;;;;;;;4.60;3.80;;;;;;;;;;5024987;28;20021;-75
2022/07/17 04:09:09;;;;;;;5.43;3.95;;;;;;;;;;5025859;28;20065;-75
2022/07/17 04:11:35;;;;;;;4.53;3.45;;;;;;;;;;5017246;28;20364;-74
2022/07/17 04:14:01;;;;;;;5.38;3.38;;;;;;;;;;5025505;28;20155;-75
2022/07/17 04:16:27;;;;;;;4.22;3.40;;;;;;;;;;5021588;28;20021;-75
2022/07/17 04:18:53;;;;;;;5.68;3.70;;;;;;;;;;5020422;28;20033;-76
2022/07/17 04:21:19;;;;;;;4.82;3.50;;;;;;;;;;5021896;28;20057;-75
2022/07/17 04:23:45;;;;;;;4.45;3.10;;;;;;;;;;5026822;28;20025;-74
2022/07/17 04:26:11;;;;;;;7.43;3.75;;;;;;;;;;5028639;28;20056;-74
2022/07/17 04:28:41;;;;;;;5.70;3.60;;;;;;;;;;5028474;28;20534;-75
2022/07/17 04:31:08;;;;;;;5.45;3.25;;;;;;;;;;5026189;28;20060;-74
2022/07/17 04:33:34;;;;;;;5.90;3.70;;;;;;;;;;5030198;28;20030;-75
2022/07/17 04:36:00;;;;;;;7.50;3.50;;;;;;;;;;5031023;28;20067;-74
2022/07/17 04:38:26;;;;;;;4.45;3.45;;;;;;;;;;5028824;28;20085;-74
2022/07/17 04:40:52;;;;;;;6.25;3.47;;;;;;;;;;5030950;28;20026;-75
2022/07/17 04:43:18;;;;;;;5.60;3.58;;;;;;;;;;5023841;28;20040;-75
2022/07/17 04:45:45;;;;;;;5.55;3.50;;;;;;;;;;5027308;28;20047;-74
2022/07/17 04:48:11;;;;;;;4.47;3.83;;;;;;;;;;5029027;28;20053;-75
2022/07/17 04:50:37;;;;;;;5.18;3.30;;;;;;;;;;5027509;28;20017;-74
2022/07/17 04:53:03;;;;;;;5.85;3.33;;;;;;;;;;5029260;28;20053;-75
2022/07/17 04:55:29;;;;;;;4.13;3.33;;;;;;;;;;5030091;28;20033;-74
2022/07/17 04:57:55;;;;;;;4.72;3.63;;;;;;;;;;5028295;28;20471;-75
2022/07/17 05:00:21;;;;;;;5.00;3.88;;;;;;;;;;5029034;28;20056;-75
2022/07/17 05:02:47;;;;;;;4.25;3.60;;;;;;;;;;5025939;28;20403;-74
2022/07/17 05:05:13;;;;;;;4.70;3.83;;;;;;;;;;5030959;28;20024;-75
2022/07/17 05:07:39;;;;;;;5.07;4.03;;;;;;;;;;5034276;28;20426;-75
2022/07/17 05:10:06;;;;;;;4.20;3.40;;;;;;;;;;5030480;28;20025;-75
2022/07/17 05:12:32;;;;;;;4.85;4.10;;;;;;;;;;5027795;28;20013;-75
2022/07/17 05:14:58;;;;;;;5.13;3.53;;;;;;;;;;5026509;28;20297;-75
2022/07/17 05:17:24;;;;;;;4.13;3.50;;;;;;;;;;5026259;28;20071;-75
2022/07/17 05:19:50;;;;;;;6.10;3.72;;;;;;;;;;5029779;28;20025;-75
2022/07/17 05:22:16;;;;;;;4.32;3.67;;;;;;;;;;5029367;28;20025;-75
2022/07/17 05:24:43;;;;;;;5.35;3.45;;;;;;;;;;5025846;28;20487;-75
2022/07/17 05:27:09;;;;;;;5.25;3.95;;;;;;;;;;5027380;28;20061;-74
2022/07/17 05:29:35;;;;;;;4.70;3.72;;;;;;;;;;5029704;28;20041;-75
2022/07/17 05:32:01;;;;;;;4.18;3.50;;;;;;;;;;5025996;28;20049;-74
2022/07/17 05:34:28;;;;;;;4.53;3.60;;;;;;;;;;5027434;28;20021;-74
2022/07/17 05:36:54;;;;;;;4.28;3.40;;;;;;;;;;5026031;28;20021;-75
2022/07/17 05:39:20;;;;;;;6.75;4.05;;;;;;;;;;5025308;28;20099;-75
2022/07/17 05:41:46;;;;;;;5.07;3.95;;;;;;;;;;5026168;28;20048;-75
2022/07/17 05:44:12;;;;;;;4.38;3.67;;;;;;;;;;5027666;28;20114;-75
2022/07/17 05:46:38;;;;;;;5.13;3.83;;;;;;;;;;5026842;28;20026;-75
2022/07/17 05:49:04;;;;;;;7.97;4.20;;;;;;;;;;5027603;28;20018;-75
2022/07/17 05:51:30;;;;;;;6.43;3.88;;;;;;;;;;5026549;28;20037;-75
2022/07/17 05:53:56;;;;;;;4.97;3.90;;;;;;;;;;5026599;28;20106;-75
2022/07/17 05:56:23;;;;;;;5.40;3.50;;;;;;;;;;5027349;28;20013;-75
2022/07/17 05:58:49;;;;;;;6.10;4.10;;;;;;;;;;5028077;28;20083;-74
2022/07/17 06:01:15;;;;;;;5.25;3.60;;;;;;;;;;5024674;28;20626;-74
2022/07/17 06:03:41;;;;;;;5.40;3.75;;;;;;;;;;5027588;28;20026;-75
2022/07/17 06:06:08;;;;;;;5.35;4.00;;;;;;;;;;5026412;28;20052;-75
2022/07/17 06:08:34;;;;;;;7.10;4.30;;;;;;;;;;5023056;28;20108;-76
2022/07/17 06:11:00;;;;;;;4.55;3.92;;;;;;;;;;5026257;28;20021;-75
2022/07/17 06:13:26;;;;;;;5.32;3.88;;;;;;;;;;5028163;28;20065;-76
2022/07/17 06:15:52;;;;;;;5.22;3.47;;;;;;;;;;5024747;28;20518;-74
2022/07/17 06:18:18;;;;;;;6.28;3.75;;;;;;;;;;5024964;28;20549;-74
2022/07/17 06:20:44;;;;;;;5.93;3.42;;;;;;;;;;5024149;28;20040;-74
2022/07/17 06:23:10;;;;;;;5.32;3.58;;;;;;;;;;5025234;28;20144;-75
2022/07/17 06:25:36;;;;;;;5.70;3.78;;;;;;;;;;5021940;28;20052;-74
2022/07/17 06:28:02;;;;;;;4.32;3.38;;;;;;;;;;5025335;28;20260;-73
2022/07/17 06:30:28;;;;;;;3.90;3.50;;;;;;;;;;5028897;28;20112;-74
2022/07/17 06:32:54;;;;;;;4.85;3.70;;;;;;;;;;5021845;28;20034;-75
2022/07/17 06:35:20;;;;;;;4.20;3.45;;;;;;;;;;5022345;28;20057;-75
2022/07/17 06:37:46;;;;;;;4.32;3.42;;;;;;;;;;5016361;28;20021;-74
2022/07/17 06:40:12;;;;;;;4.57;3.63;;;;;;;;;;5022631;28;20105;-75
2022/07/17 06:42:38;;;;;;;9.38;4.00;;;;;;;;;;5023006;28;20021;-74
2022/07/17 06:45:05;;;;;;;17.80;6.95;;;;;;;;;;5020743;28;20071;-75
2022/07/17 06:47:31;;;;;;;6.85;4.05;;;;;;;;;;5024629;28;20033;-75
2022/07/17 06:49:57;;;;;;;6.15;3.70;;;;;;;;;;5025101;28;20495;-75
2022/07/17 06:52:23;;;;;;;10.77;4.47;;;;;;;;;;5027626;28;20035;-74
2022/07/17 06:54:49;;;;;;;13.00;4.93;;;;;;;;;;5031815;28;20144;-75
2022/07/17 06:57:15;;;;;;;9.32;4.03;;;;;;;;;;5030078;28;20041;-75
2022/07/17 06:59:41;;;;;;;12.10;4.20;;;;;;;;;;5032055;28;20060;-74
2022/07/17 07:02:08;;;;;;;6.50;3.90;;;;;;;;;;5033366;28;20111;-75
2022/07/17 07:04:34;;;;;;;10.02;4.28;;;;;;;;;;5032801;28;20705;-75
2022/07/17 07:07:00;;;;;;;5.38;3.60;;;;;;;;;;5031605;28;20029;-74
2022/07/17 07:09:26;;;;;;;7.20;3.72;;;;;;;;;;5030630;28;20490;-74
2022/07/17 07:11:52;;;;;;;5.13;3.70;;;;;;;;;;5034348;28;20021;-74
2022/07/17 07:14:18;;;;;;;5.13;3.45;;;;;;;;;;5031575;28;20087;-74
2022/07/17 07:16:44;;;;;;;5.40;3.90;;;;;;;;;;5033471;28;20376;-74
2022/07/17 07:19:11;;;;;;;3.75;3.22;;;;;;;;;;5029333;28;20039;-74
2022/07/17 07:21:37;;;;;;;3.63;3.08;;;;;;;;;;5032733;28;20037;-75
2022/07/17 07:24:04;;;;;;;7.00;3.55;;;;;;;;;;5032602;28;20037;-75
2022/07/17 07:26:30;;;;;;;4.22;3.53;;;;;;;;;;5033263;28;20399;-75
2022/07/17 07:28:56;;;;;;;5.25;3.40;;;;;;;;;;5031743;28;20029;-75
2022/07/17 07:31:23;;;;;;;4.13;3.40;;;;;;;;;;5032553;28;20046;-75
2022/07/17 07:33:50;;;;;;;5.00;3.55;;;;;;;;;;5033233;28;20053;-75
2022/07/17 07:36:16;;;;;;;6.88;4.20;;;;;;;;;;5028148;28;20499;-75
2022/07/17 07:38:42;;;;;;;7.63;4.50;;;;;;;;;;5031664;28;20028;-76
2022/07/17 07:41:08;;;;;;;6.70;5.30;;;;;;;;;;5031734;28;20025;-74
2022/07/17 07:43:34;;;;;;;3.97;3.58;;;;;;;;;;5030819;28;20112;-75
2022/07/17 07:46:00;;;;;;;7.00;3.70;;;;;;;;;;5032083;28;20029;-75
2022/07/17 07:48:27;;;;;;;8.60;3.75;;;;;;;;;;5031478;28;20095;-75
2022/07/17 07:50:53;;;;;;;7.15;3.58;;;;;;;;;;5031907;28;20021;-74
2022/07/17 07:53:19;;;;;;;4.68;3.35;;;;;;;;;;5032666;28;20057;-75
2022/07/17 07:55:45;;;;;;;6.18;3.67;;;;;;;;;;5030794;28;20383;-75
2022/07/17 07:58:12;;;;;;;5.00;3.58;;;;;;;;;;5031786;28;20029;-75
2022/07/17 08:00:39;;;;;;;5.03;3.35;;;;;;;;;;5029772;28;20104;-74
2022/07/17 08:03:06;;;;;;;6.88;3.35;;;;;;;;;;5031541;28;20059;-75
2022/07/17 08:05:32;;;;;;;7.50;4.15;;;;;;;;;;5027773;28;20079;-75
2022/07/17 08:07:59;;;;;;;6.93;4.53;;;;;;;;;;5029758;28;20029;-76
2022/07/17 08:10:25;;;;;;;4.32;3.42;;;;;;;;;;5030002;28;20052;-75
2022/07/17 08:12:51;;;;;;;6.50;3.70;;;;;;;;;;5028531;28;20057;-75
2022/07/17 08:15:19;;;;;;;6.30;3.70;;;;;;;;;;5026052;28;20082;-74
2022/07/17 08:17:46;;;;;;;7.40;3.50;;;;;;;;;;5023468;28;20036;-75
2022/07/17 08:20:12;;;;;;;5.00;3.65;;;;;;;;;;5028672;28;20033;-75
2022/07/17 08:22:38;;;;;;;6.43;3.75;;;;;;;;;;5027925;28;20030;-75
2022/07/17 08:25:05;;;;;;;4.60;3.47;;;;;;;;;;5027610;28;20043;-76
2022/07/17 08:27:37;;;;;;;4.97;3.78;;;;;;;;;;5020182;28;20029;-75
2022/07/17 08:30:05;;;;;;;6.43;3.97;;;;;;;;;;5028855;28;20137;-76
2022/07/17 08:32:31;;;;;;;6.18;4.10;;;;;;;;;;5030280;28;20044;-75
2022/07/17 08:34:57;;;;;;;4.55;3.72;;;;;;;;;;5027882;28;20566;-75
2022/07/17 08:37:24;;;;;;;7.25;4.15;;;;;;;;;;5026811;28;20307;-75
2022/07/17 08:39:50;;;;;;;5.68;3.72;;;;;;;;;;5025467;28;20033;-75
2022/07/17 08:42:16;;;;;;;6.10;4.10;;;;;;;;;;5027983;28;20025;-75
2022/07/17 08:44:42;;;;;;;5.90;3.92;;;;;;;;;;5029939;28;20061;-76
2022/07/17 08:47:09;;;;;;;4.80;3.70;;;;;;;;;;5025312;28;20030;-77
2022/07/17 08:49:37;;;;;;;5.32;3.70;;;;;;;;;;5029815;28;20029;-76
2022/07/17 08:52:04;;;;;;;5.68;4.00;;;;;;;;;;5026975;28;20013;-75
2022/07/17 08:54:30;;;;;;;5.07;3.80;;;;;;;;;;5029202;28;20025;-75
2022/07/17 08:56:57;;;;;;;5.18;3.83;;;;;;;;;;5024611;28;20021;-76
2022/07/17 08:59:23;;;;;;;6.03;4.20;;;;;;;;;;5028836;28;20075;-76
2022/07/17 09:01:49;;;;;;;5.60;4.35;;;;;;;;;;5024431;28;20033;-76
2022/07/17 09:04:17;;;;;;;4.47;3.67;;;;;;;;;;5030078;28;20033;-75
2022/07/17 09:06:43;;;;;;;5.53;3.92;;;;;;;;;;5029967;28;20064;-75
2022/07/17 09:09:11;;;;;;;5.28;3.88;;;;;;;;;;5028699;28;20022;-75
2022/07/17 09:11:45;;;;;;;7.32;4.32;;;;;;;;;;5027088;28;20041;-75
2022/07/17 09:14:11;;;;;;;4.75;4.05;;;;;;;;;;5023187;28;20029;-74
2022/07/17 09:16:47;;;;;;;4.72;4.10;;;;;;;;;;5027394;28;20028;-75
2022/07/17 09:19:23;;;;;;;5.72;3.95;;;;;;;;;;5030436;28;20130;-75
2022/07/17 09:21:51;;;;;;;6.00;4.25;;;;;;;;;;5028425;28;20510;-76
2022/07/17 09:24:17;;;;;;;3.97;3.30;;;;;;;;;;5029482;28;20029;-74
2022/07/17 09:26:46;;;;;;;6.15;3.38;;;;;;;;;;5029671;28;20281;-75
2022/07/17 09:29:12;;;;;;;4.43;3.10;;;;;;;;;;5026415;28;20037;-75
2022/07/17 09:31:38;;;;;;;3.60;2.78;;;;;;;;;;5027818;28;20037;-77
2022/07/17 09:34:05;;;;;;;4.28;3.00;;;;;;;;;;5027774;28;20379;-74
2022/07/17 09:36:31;;;;;;;3.95;3.10;;;;;;;;;;5020336;28;20052;-76
2022/07/17 09:38:58;;;;;;;6.05;3.20;;;;;;;;;;5023089;28;20107;-76
2022/07/17 09:41:26;;;;;;;3.58;3.20;;;;;;;;;;5029088;28;20076;-74
2022/07/17 09:43:54;;;;;;;3.85;3.08;;;;;;;;;;5024996;28;20084;-75
2022/07/17 09:46:22;;;;;;;4.82;3.30;;;;;;;;;;5027045;28;20029;-75
2022/07/17 09:48:50;;;;;;;5.20;3.08;;;;;;;;;;5026670;28;20022;-75
2022/07/17 09:51:17;;;;;;;5.05;3.40;;;;;;;;;;5028528;28;20383;-75
2022/07/17 09:53:45;;;;;;;3.78;3.08;;;;;;;;;;5025897;28;20021;-75
2022/07/17 09:56:12;;;;;;;5.85;3.25;;;;;;;;;;5028344;28;20021;-77
2022/07/17 09:58:40;;;;;;;5.30;3.53;;;;;;;;;;5025554;28;20541;-75
2022/07/17 10:01:07;;;;;;;4.07;3.17;;;;;;;;;;5028522;28;20029;-76
2022/07/17 10:03:33;;;;;;;5.13;2.88;;;;;;;;;;5025322;28;20033;-76
2022/07/17 10:05:59;;;;;;;4.03;3.28;;;;;;;;;;5025525;28;20099;-75
2022/07/17 10:08:26;;;;;;;3.45;2.97;;;;;;;;;;5027221;28;20415;-75
2022/07/17 10:10:52;;;;;;;5.13;3.55;;;;;;;;;;5024648;28;20028;-75
2022/07/17 10:13:19;;;;;;;4.75;3.33;;;;;;;;;;5026144;28;20048;-76
2022/07/17 10:15:45;;;;;;;6.32;3.53;;;;;;;;;;5025610;28;20021;-76
2022/07/17 10:18:11;;;;;;;4.45;3.60;;;;;;;;;;5022108;28;20125;-76
2022/07/17 10:20:38;;;;;;;4.00;3.60;;;;;;;;;;5024215;28;20072;-76
2022/07/17 10:23:14;;;;;;;4.70;3.40;;;;;;;;;;5028028;28;20029;-75
2022/07/17 10:25:40;;;;;;;4.15;3.22;;;;;;;;;;5024324;28;20029;-75
2022/07/17 10:28:07;;;;;;;5.75;3.40;;;;;;;;;;5021459;28;20396;-73
2022/07/17 10:30:33;;;;;;;4.05;3.20;;;;;;;;;;5022082;28;20578;-75
2022/07/17 10:33:00;;;;;;;6.63;4.28;;;;;;;;;;5022096;28;20132;-75
2022/07/17 10:35:28;;;;;;;4.28;3.25;;;;;;;;;;5022988;28;20492;-75
2022/07/17 10:37:58;;;;;;;3.83;2.80;;;;;;;;;;5020329;28;20109;-73
2022/07/17 10:40:28;;;;;;;6.30;3.88;;;;;;;;;;5021539;28;20087;-74
2022/07/17 10:42:54;;;;;;;5.57;3.20;;;;;;;;;;5024742;28;20648;-74
2022/07/17 10:45:23;;;;;;;4.00;3.15;;;;;;;;;;5027134;28;20068;-74
2022/07/17 10:47:52;;;;;;;4.10;3.60;;;;;;;;;;5025973;28;20025;-75
2022/07/17 10:50:19;;;;;;;7.18;3.63;;;;;;;;;;5030072;28;20426;-74
2022/07/17 10:52:56;;;;;;;4.65;3.30;;;;;;;;;;5028783;28;20030;-75
2022/07/17 10:55:23;;;;;;;4.45;3.45;;;;;;;;;;5028628;28;20053;-73
2022/07/17 10:57:49;;;;;;;4.57;3.30;;;;;;;;;;5026985;28;20025;-74
2022/07/17 11:00:18;;;;;;;5.45;4.07;;;;;;;;;;5013598;28;20120;-74
2022/07/17 11:02:45;;;;;;;4.30;3.13;;;;;;;;;;5022552;28;20162;-75
2022/07/17 11:05:14;;;;;;;5.70;3.90;;;;;;;;;;5024529;28;20030;-75
2022/07/17 11:07:50;;;;;;;4.03;3.50;;;;;;;;;;5026367;28;20032;-76
2022/07/17 11:10:17;;;;;;;5.45;3.50;;;;;;;;;;5024527;28;20037;-75
2022/07/17 11:12:43;;;;;;;4.43;3.50;;;;;;;;;;5019843;28;20017;-75
2022/07/17 11:15:09;;;;;;;4.78;3.25;;;;;;;;;;5021420;28;20494;-75
2022/07/17 11:17:35;;;;;;;5.40;3.05;;;;;;;;;;5015943;28;20103;-76
2022/07/17 11:20:03;;;;;;;3.60;2.90;;;;;;;;;;5019586;28;20041;-75
2022/07/17 11:22:29;;;;;;;4.53;3.35;;;;;;;;;;5017222;28;20034;-75
2022/07/17 11:24:55;;;;;;;4.13;3.58;;;;;;;;;;5018614;28;20057;-75
2022/07/17 11:27:26;;;;;;;5.35;3.30;;;;;;;;;;5017761;28;20034;-75
2022/07/17 11:29:53;;;;;;;4.18;3.60;;;;;;;;;;5019192;28;20034;-76
2022/07/17 11:32:19;;;;;;;6.70;3.17;;;;;;;;;;5018356;28;20631;-77
2022/07/17 11:34:46;;;;;;;5.82;3.42;;;;;;;;;;5020823;28;20207;-75
2022/07/17 11:37:12;;;;;;;4.72;3.22;;;;;;;;;;5018398;28;20142;-76
2022/07/17 11:39:39;;;;;;;4.47;3.35;;;;;;;;;;5020458;28;20033;-75
2022/07/17 11:42:08;;;;;;;5.30;3.30;;;;;;;;;;5023268;28;20037;-77
2022/07/17 11:44:34;;;;;;;6.20;3.30;;;;;;;;;;5020416;28;20398;-74
2022/07/17 11:47:00;;;;;;;4.93;3.20;;;;;;;;;;5015788;28;20045;-75
2022/07/17 11:49:27;;;;;;;4.20;3.40;;;;;;;;;;5018131;28;20033;-75
2022/07/17 11:51:55;;;;;;;4.10;3.10;;;;;;;;;;5017924;28;20443;-76
2022/07/17 11:54:22;;;;;;;4.35;3.00;;;;;;;;;;5020559;28;20395;-76
2022/07/17 11:56:53;;;;;;;5.55;3.28;;;;;;;;;;5022053;28;20068;-75
2022/07/17 11:59:27;;;;;;;4.75;3.15;;;;;;;;;;5019339;28;20327;-76
2022/07/17 12:01:53;;;;;;;3.80;3.03;;;;;;;;;;5019806;28;20029;-76
2022/07/17 12:04:20;;;;;;;5.30;3.28;;;;;;;;;;5021790;28;20243;-75
2022/07/17 12:06:46;;;;;;;4.40;3.08;;;;;;;;;;5022621;28;20638;-76
2022/07/17 12:09:13;;;;;;;4.22;3.25;;;;;;;;;;5019112;28;20426;-76
2022/07/17 12:11:49;;;;;;;6.60;3.30;;;;;;;;;;5019024;28;20029;-76
2022/07/17 12:14:15;;;;;;;6.57;3.33;;;;;;;;;;5021890;28;20025;-76
2022/07/17 12:16:42;;;;;;;5.47;3.35;;;;;;;;;;5024218;28;20026;-75
2022/07/17 12:19:15;;;;;;;7.40;4.00;;;;;;;;;;5021530;28;20390;-75
2022/07/17 12:22:02;;;;;;;4.32;3.22;;;;;;;;;;5022660;28;20163;-76
2022/07/17 12:24:29;;;;;;;5.38;3.47;;;;;;;;;;5023236;28;20150;-77
2022/07/17 12:26:56;;;;;;;4.00;3.20;;;;;;;;;;5022774;28;20567;-76
2022/07/17 12:29:22;;;;;;;4.60;3.25;;;;;;;;;;5023096;28;20029;-75
2022/07/17 12:31:49;;;;;;;5.88;3.28;;;;;;;;;;5018774;28;20053;-76
2022/07/17 12:34:15;;;;;;;3.90;3.22;;;;;;;;;;5020912;28;20026;-76
2022/07/17 12:36:41;;;;;;;5.10;3.58;;;;;;;;;;5020517;28;20498;-76
2022/07/17 12:39:07;;;;;;;3.60;3.08;;;;;;;;;;5022403;28;20518;-76
2022/07/17 12:41:33;;;;;;;4.07;3.60;;;;;;;;;;5020587;28;20674;-76
2022/07/17 12:43:59;;;;;;;5.18;3.30;;;;;;;;;;5020659;28;20029;-75
2022/07/17 12:46:25;;;;;;;5.13;3.83;;;;;;;;;;5022426;28;20025;-75
2022/07/17 12:48:51;;;;;;;4.43;3.47;;;;;;;;;;5016554;28;20239;-76
2022/07/17 12:51:17;;;;;;;6.28;3.10;;;;;;;;;;5018731;28;20049;-76
2022/07/17 12:53:44;;;;;;;4.90;3.17;;;;;;;;;;5017323;28;20026;-75
2022/07/17 12:56:11;;;;;;;6.05;3.40;;;;;;;;;;5022206;28;20037;-75
2022/07/17 12:58:37;;;;;;;5.45;3.92;;;;;;;;;;5018607;28;20076;-74
2022/07/17 13:01:04;;;;;;;7.43;3.70;;;;;;;;;;5019894;28;20171;-77
2022/07/17 13:03:30;;;;;;;5.53;3.75;;;;;;;;;;5021061;28;20031;-77
2022/07/17 13:05:56;;;;;;;7.18;3.63;;;;;;;;;;5022563;28;20076;-77
2022/07/17 13:08:22;;;;;;;4.43;3.75;;;;;;;;;;5024920;28;20057;-75
2022/07/17 13:10:50;;;;;;;4.82;4.03;;;;;;;;;;5028239;28;20071;-76
2022/07/17 13:13:16;;;;;;;5.60;3.60;;;;;;;;;;5022027;28;20017;-76
2022/07/17 13:15:42;;;;;;;5.10;3.85;;;;;;;;;;5022078;28;20453;-77
2022/07/17 13:18:08;;;;;;;6.18;3.33;;;;;;;;;;5021620;28;20161;-77
2022/07/17 13:20:34;;;;;;;4.22;3.13;;;;;;;;;;5019815;28;20030;-76
2022/07/17 13:23:00;;;;;;;4.95;3.42;;;;;;;;;;5020926;28;20029;-76
2022/07/17 13:25:26;;;;;;;6.05;3.42;;;;;;;;;;5023088;28;20053;-76
2022/07/17 13:27:56;;;;;;;4.65;3.60;;;;;;;;;;5022167;28;20029;-76
2022/07/17 13:30:22;;;;;;;5.43;3.47;;;;;;;;;;5021550;28;20048;-77
2022/07/17 13:32:48;;;;;;;4.95;3.10;;;;;;;;;;5022054;28;20021;-79
2022/07/17 13:35:16;;;;;;;6.25;3.53;;;;;;;;;;5020044;28;20018;-77
2022/07/17 13:37:42;;;;;;;6.15;3.53;;;;;;;;;;5021770;28;20068;-78
2022/07/17 13:40:08;;;;;;;6.65;3.45;;;;;;;;;;5023107;28;20427;-76
2022/07/17 13:42:34;;;;;;;3.90;3.50;;;;;;;;;;5022209;28;20394;-76
2022/07/17 13:45:01;;;;;;;7.75;3.28;;;;;;;;;;5023749;28;20509;-77
2022/07/17 13:47:27;;;;;;;6.82;3.20;;;;;;;;;;5022773;28;20033;-78
2022/07/17 13:49:53;;;;;;;4.90;3.40;;;;;;;;;;5023287;28;20040;-78
2022/07/17 13:52:19;;;;;;;8.20;3.17;;;;;;;;;;5023170;28;20364;-77
2022/07/17 13:54:45;;;;;;;4.38;3.60;;;;;;;;;;5022968;28;20033;-77
2022/07/17 13:57:11;;;;;;;9.98;3.40;;;;;;;;;;5025271;28;20502;-77
2022/07/17 13:59:37;;;;;;;8.15;3.97;;;;;;;;;;5020754;28;20029;-78
2022/07/17 14:02:03;;;;;;;4.93;3.50;;;;;;;;;;5021000;28;20155;-76
2022/07/17 14:04:29;;;;;;;3.40;3.10;;;;;;;;;;5022695;28;20025;-76
2022/07/17 14:06:55;;;;;;;4.05;3.45;;;;;;;;;;5020971;28;20037;-76
2022/07/17 14:09:22;;;;;;;4.65;3.30;;;;;;;;;;5022382;28;20029;-76
2022/07/17 14:11:48;;;;;;;5.18;3.15;;;;;;;;;;5025090;28;20056;-76
2022/07/17 14:14:14;;;;;;;6.35;3.10;;;;;;;;;;5021873;28;20033;-77
2022/07/17 14:16:40;;;;;;;3.85;3.13;;;;;;;;;;5022404;28;20052;-78
2022/07/17 14:19:06;;;;;;;5.32;3.25;;;;;;;;;;5021480;28;20036;-77
2022/07/17 14:21:34;;;;;;;8.27;3.63;;;;;;;;;;5023493;28;20036;-77
2022/07/17 14:24:00;;;;;;;4.13;3.10;;;;;;;;;;5021868;28;20030;-75
2022/07/17 14:26:27;;;;;;;4.43;3.30;;;;;;;;;;5021883;28;20499;-76
2022/07/17 14:28:53;;;;;;;7.70;3.15;;;;;;;;;;5021346;28;20542;-75
2022/07/17 14:31:19;;;;;;;4.15;3.25;;;;;;;;;;5019938;28;20118;-76
2022/07/17 14:33:46;;;;;;;4.70;3.28;;;;;;;;;;5018347;28;20029;-75
2022/07/17 14:36:13;;;;;;;4.90;3.13;;;;;;;;;;5021538;28;20037;-74
2022/07/17 14:38:39;;;;;;;3.58;2.80;;;;;;;;;;5019082;28;20431;-75